sensor_id;sensor_type;location;lat;lon;timestamp;P1;durP1;ratioP1;P2;durP2;ratioP2
11763;SDS011;5939;56.522;14.950;2023-01-10T00:00:18;3.40;;;2.80;;
11763;SDS011;5939;56.522;14.950;2023-01-10T00:02:45;3.10;;;2.60;;
11763;SDS011;5939;56.522;14.950;2023-01-10T00:05:11;2.90;;;2.60;;
11763;SDS011;5939;56.522;14.950;2023-01-10T00:07:36;2.90;;;2.40;;
11763;SDS011;5939;56.522;14.950;2023-01-10T00:10:02;3.07;;;2.50;;
11763;SDS011;5939;56.522;14.950;2023-01-10T00:12:28;2.93;;;2.30;;
11763;SDS011;5939;56.522;14.950;2023-01-10T00:15:12;2.63;;;2.43;;
11763;SDS011;5939;56.522;14.950;2023-01-10T00:17:37;3.13;;;2.83;;
11763;SDS011;5939;56.522;14.950;2023-01-10T00:20:03;4.83;;;2.97;;
11763;SDS011;5939;56.522;14.950;2023-01-10T00:22:29;3.50;;;2.80;;
11763;SDS011;5939;56.522;14.950;2023-01-10T00:24:55;2.97;;;2.67;;
11763;SDS011;5939;56.522;14.950;2023-01-10T00:27:20;3.80;;;3.00;;
11763;SDS011;5939;56.522;14.950;2023-01-10T00:29:49;3.30;;;2.90;;
11763;SDS011;5939;56.522;14.950;2023-01-10T00:32:21;3.60;;;2.90;;
11763;SDS011;5939;56.522;14.950;2023-01-10T00:34:46;3.33;;;3.00;;
11763;SDS011;5939;56.522;14.950;2023-01-10T00:37:12;3.60;;;3.10;;
11763;SDS011;5939;56.522;14.950;2023-01-10T00:39:38;4.20;;;2.97;;
11763;SDS011;5939;56.522;14.950;2023-01-10T00:42:04;4.43;;;3.40;;
11763;SDS011;5939;56.522;14.950;2023-01-10T00:44:48;4.57;;;3.30;;
11763;SDS011;5939;56.522;14.950;2023-01-10T00:47:15;3.63;;;2.90;;
11763;SDS011;5939;56.522;14.950;2023-01-10T00:49:41;3.40;;;3.10;;
11763;SDS011;5939;56.522;14.950;2023-01-10T00:52:06;3.47;;;2.97;;
11763;SDS011;5939;56.522;14.950;2023-01-10T00:54:32;4.77;;;3.13;;
11763;SDS011;5939;56.522;14.950;2023-01-10T00:56:58;5.27;;;3.40;;
11763;SDS011;5939;56.522;14.950;2023-01-10T00:59:24;3.63;;;3.23;;
11763;SDS011;5939;56.522;14.950;2023-01-10T01:01:50;3.60;;;3.30;;
11763;SDS011;5939;56.522;14.950;2023-01-10T01:04:16;3.73;;;3.30;;
11763;SDS011;5939;56.522;14.950;2023-01-10T01:06:43;4.33;;;3.50;;
11763;SDS011;5939;56.522;14.950;2023-01-10T01:09:10;4.07;;;2.97;;
11763;SDS011;5939;56.522;14.950;2023-01-10T01:11:36;3.50;;;3.10;;
11763;SDS011;5939;56.522;14.950;2023-01-10T01:14:02;3.80;;;2.93;;
11763;SDS011;5939;56.522;14.950;2023-01-10T01:16:28;4.33;;;3.37;;
11763;SDS011;5939;56.522;14.950;2023-01-10T01:18:53;3.97;;;3.50;;
11763;SDS011;5939;56.522;14.950;2023-01-10T01:21:19;3.43;;;2.87;;
11763;SDS011;5939;56.522;14.950;2023-01-10T01:23:45;5.00;;;3.57;;
11763;SDS011;5939;56.522;14.950;2023-01-10T01:26:11;5.00;;;3.27;;
11763;SDS011;5939;56.522;14.950;2023-01-10T01:28:36;3.90;;;3.47;;
11763;SDS011;5939;56.522;14.950;2023-01-10T01:31:09;3.50;;;3.20;;
11763;SDS011;5939;56.522;14.950;2023-01-10T01:33:35;3.97;;;3.43;;
11763;SDS011;5939;56.522;14.950;2023-01-10T01:36:01;4.40;;;3.33;;
11763;SDS011;5939;56.522;14.950;2023-01-10T01:38:27;4.90;;;3.47;;
11763;SDS011;5939;56.522;14.950;2023-01-10T01:40:52;4.70;;;3.33;;
11763;SDS011;5939;56.522;14.950;2023-01-10T01:43:20;3.93;;;3.53;;
11763;SDS011;5939;56.522;14.950;2023-01-10T01:45:49;6.37;;;3.90;;
11763;SDS011;5939;56.522;14.950;2023-01-10T01:48:29;4.87;;;3.80;;
11763;SDS011;5939;56.522;14.950;2023-01-10T01:51:08;5.73;;;3.63;;
11763;SDS011;5939;56.522;14.950;2023-01-10T01:56:22;5.77;;;4.07;;
11763;SDS011;5939;56.522;14.950;2023-01-10T01:58:53;6.43;;;3.80;;
11763;SDS011;5939;56.522;14.950;2023-01-10T02:01:25;6.10;;;4.10;;
11763;SDS011;5939;56.522;14.950;2023-01-10T02:03:53;5.30;;;3.73;;
11763;SDS011;5939;56.522;14.950;2023-01-10T02:06:24;5.23;;;3.67;;
11763;SDS011;5939;56.522;14.950;2023-01-10T02:08:56;5.13;;;3.60;;
11763;SDS011;5939;56.522;14.950;2023-01-10T02:11:29;4.97;;;3.60;;
11763;SDS011;5939;56.522;14.950;2023-01-10T02:13:56;6.83;;;3.53;;
11763;SDS011;5939;56.522;14.950;2023-01-10T02:16:23;4.77;;;3.60;;
11763;SDS011;5939;56.522;14.950;2023-01-10T02:18:48;5.37;;;3.67;;
11763;SDS011;5939;56.522;14.950;2023-01-10T02:26:49;3.93;;;3.53;;
11763;SDS011;5939;56.522;14.950;2023-01-10T02:35:17;4.93;;;3.53;;
11763;SDS011;5939;56.522;14.950;2023-01-10T02:41:04;5.67;;;3.40;;
11763;SDS011;5939;56.522;14.950;2023-01-10T02:43:37;4.87;;;3.23;;
11763;SDS011;5939;56.522;14.950;2023-01-10T02:46:08;4.03;;;3.27;;
11763;SDS011;5939;56.522;14.950;2023-01-10T02:48:40;3.77;;;3.17;;
11763;SDS011;5939;56.522;14.950;2023-01-10T02:51:11;3.13;;;2.83;;
11763;SDS011;5939;56.522;14.950;2023-01-10T02:54:02;4.80;;;3.10;;
11763;SDS011;5939;56.522;14.950;2023-01-10T03:05:14;4.27;;;3.10;;
11763;SDS011;5939;56.522;14.950;2023-01-10T03:07:55;4.53;;;3.17;;
11763;SDS011;5939;56.522;14.950;2023-01-10T03:10:32;3.83;;;3.43;;
11763;SDS011;5939;56.522;14.950;2023-01-10T03:13:16;3.97;;;3.30;;
11763;SDS011;5939;56.522;14.950;2023-01-10T03:15:58;5.53;;;3.27;;
11763;SDS011;5939;56.522;14.950;2023-01-10T03:18:27;5.23;;;3.17;;
11763;SDS011;5939;56.522;14.950;2023-01-10T03:21:03;4.30;;;3.30;;
11763;SDS011;5939;56.522;14.950;2023-01-10T03:23:32;3.53;;;3.13;;
11763;SDS011;5939;56.522;14.950;2023-01-10T03:25:59;3.33;;;3.03;;
11763;SDS011;5939;56.522;14.950;2023-01-10T03:30:58;3.70;;;2.90;;
11763;SDS011;5939;56.522;14.950;2023-01-10T03:33:31;5.03;;;3.03;;
11763;SDS011;5939;56.522;14.950;2023-01-10T03:41:38;3.67;;;3.10;;
11763;SDS011;5939;56.522;14.950;2023-01-10T03:44:18;3.77;;;3.30;;
11763;SDS011;5939;56.522;14.950;2023-01-10T03:47:08;4.67;;;3.23;;
11763;SDS011;5939;56.522;14.950;2023-01-10T03:49:40;4.97;;;2.87;;
11763;SDS011;5939;56.522;14.950;2023-01-10T03:52:08;4.80;;;3.20;;
11763;SDS011;5939;56.522;14.950;2023-01-10T03:54:38;5.37;;;3.63;;
11763;SDS011;5939;56.522;14.950;2023-01-10T03:57:07;4.27;;;3.47;;
11763;SDS011;5939;56.522;14.950;2023-01-10T03:59:38;4.87;;;3.17;;
11763;SDS011;5939;56.522;14.950;2023-01-10T04:02:04;3.87;;;3.27;;
11763;SDS011;5939;56.522;14.950;2023-01-10T04:04:30;4.43;;;3.10;;
11763;SDS011;5939;56.522;14.950;2023-01-10T04:06:56;4.13;;;3.30;;
11763;SDS011;5939;56.522;14.950;2023-01-10T04:09:22;3.90;;;3.27;;
11763;SDS011;5939;56.522;14.950;2023-01-10T04:11:47;4.03;;;3.20;;
11763;SDS011;5939;56.522;14.950;2023-01-10T04:14:13;4.63;;;3.77;;
11763;SDS011;5939;56.522;14.950;2023-01-10T04:16:39;4.37;;;3.10;;
11763;SDS011;5939;56.522;14.950;2023-01-10T04:19:04;4.43;;;3.10;;
11763;SDS011;5939;56.522;14.950;2023-01-10T04:21:30;5.57;;;3.77;;
11763;SDS011;5939;56.522;14.950;2023-01-10T04:23:56;4.63;;;3.23;;
11763;SDS011;5939;56.522;14.950;2023-01-10T04:26:21;4.70;;;3.40;;
11763;SDS011;5939;56.522;14.950;2023-01-10T04:28:47;4.53;;;3.30;;
11763;SDS011;5939;56.522;14.950;2023-01-10T04:31:13;5.13;;;3.17;;
11763;SDS011;5939;56.522;14.950;2023-01-10T04:33:38;4.93;;;3.37;;
11763;SDS011;5939;56.522;14.950;2023-01-10T04:36:05;5.53;;;3.33;;
11763;SDS011;5939;56.522;14.950;2023-01-10T04:38:31;4.50;;;3.27;;
11763;SDS011;5939;56.522;14.950;2023-01-10T04:40:57;4.27;;;3.13;;
11763;SDS011;5939;56.522;14.950;2023-01-10T04:43:23;3.20;;;2.90;;
11763;SDS011;5939;56.522;14.950;2023-01-10T04:45:49;6.40;;;3.30;;
11763;SDS011;5939;56.522;14.950;2023-01-10T04:48:16;3.97;;;3.30;;
11763;SDS011;5939;56.522;14.950;2023-01-10T04:50:41;4.60;;;3.70;;
11763;SDS011;5939;56.522;14.950;2023-01-10T04:53:07;6.33;;;3.60;;
11763;SDS011;5939;56.522;14.950;2023-01-10T04:55:33;4.80;;;3.40;;
11763;SDS011;5939;56.522;14.950;2023-01-10T04:58:00;4.30;;;3.37;;
11763;SDS011;5939;56.522;14.950;2023-01-10T05:00:26;7.00;;;4.03;;
11763;SDS011;5939;56.522;14.950;2023-01-10T05:02:55;4.37;;;3.67;;
11763;SDS011;5939;56.522;14.950;2023-01-10T05:05:21;6.20;;;3.77;;
11763;SDS011;5939;56.522;14.950;2023-01-10T05:07:48;4.27;;;3.70;;
11763;SDS011;5939;56.522;14.950;2023-01-10T05:10:13;7.20;;;3.80;;
11763;SDS011;5939;56.522;14.950;2023-01-10T05:12:39;6.00;;;4.03;;
11763;SDS011;5939;56.522;14.950;2023-01-10T05:15:05;5.37;;;3.47;;
11763;SDS011;5939;56.522;14.950;2023-01-10T05:17:31;5.17;;;4.33;;
11763;SDS011;5939;56.522;14.950;2023-01-10T05:19:57;4.00;;;3.57;;
11763;SDS011;5939;56.522;14.950;2023-01-10T05:22:23;4.70;;;3.70;;
11763;SDS011;5939;56.522;14.950;2023-01-10T05:24:48;7.23;;;3.97;;
11763;SDS011;5939;56.522;14.950;2023-01-10T05:27:14;5.67;;;3.77;;
11763;SDS011;5939;56.522;14.950;2023-01-10T05:29:44;4.97;;;3.37;;
11763;SDS011;5939;56.522;14.950;2023-01-10T05:32:09;5.30;;;3.43;;
11763;SDS011;5939;56.522;14.950;2023-01-10T05:34:35;4.63;;;4.10;;
11763;SDS011;5939;56.522;14.950;2023-01-10T05:37:01;5.70;;;3.70;;
11763;SDS011;5939;56.522;14.950;2023-01-10T05:39:27;4.00;;;3.60;;
11763;SDS011;5939;56.522;14.950;2023-01-10T05:41:52;4.37;;;3.97;;
11763;SDS011;5939;56.522;14.950;2023-01-10T05:44:18;6.03;;;4.17;;
11763;SDS011;5939;56.522;14.950;2023-01-10T05:46:43;6.53;;;3.80;;
11763;SDS011;5939;56.522;14.950;2023-01-10T05:49:09;5.30;;;3.73;;
11763;SDS011;5939;56.522;14.950;2023-01-10T05:51:35;4.97;;;4.00;;
11763;SDS011;5939;56.522;14.950;2023-01-10T05:54:00;7.53;;;4.53;;
11763;SDS011;5939;56.522;14.950;2023-01-10T05:56:26;6.70;;;4.37;;
11763;SDS011;5939;56.522;14.950;2023-01-10T05:58:53;4.70;;;4.10;;
11763;SDS011;5939;56.522;14.950;2023-01-10T06:01:18;5.13;;;4.00;;
11763;SDS011;5939;56.522;14.950;2023-01-10T06:03:44;5.97;;;4.37;;
11763;SDS011;5939;56.522;14.950;2023-01-10T06:06:10;4.87;;;4.17;;
11763;SDS011;5939;56.522;14.950;2023-01-10T06:08:35;6.00;;;4.27;;
11763;SDS011;5939;56.522;14.950;2023-01-10T06:11:02;6.03;;;4.77;;
11763;SDS011;5939;56.522;14.950;2023-01-10T06:13:28;6.20;;;4.10;;
11763;SDS011;5939;56.522;14.950;2023-01-10T06:15:54;7.50;;;4.53;;
11763;SDS011;5939;56.522;14.950;2023-01-10T06:18:19;4.67;;;3.80;;
11763;SDS011;5939;56.522;14.950;2023-01-10T06:20:45;5.03;;;4.20;;
11763;SDS011;5939;56.522;14.950;2023-01-10T06:23:11;6.80;;;4.60;;
11763;SDS011;5939;56.522;14.950;2023-01-10T06:25:37;6.37;;;4.90;;
11763;SDS011;5939;56.522;14.950;2023-01-10T06:28:11;6.50;;;4.10;;
11763;SDS011;5939;56.522;14.950;2023-01-10T06:30:38;6.10;;;4.30;;
11763;SDS011;5939;56.522;14.950;2023-01-10T06:33:06;5.30;;;4.53;;
11763;SDS011;5939;56.522;14.950;2023-01-10T06:35:32;9.50;;;5.17;;
11763;SDS011;5939;56.522;14.950;2023-01-10T06:37:58;7.60;;;4.90;;
11763;SDS011;5939;56.522;14.950;2023-01-10T06:40:24;8.57;;;4.50;;
11763;SDS011;5939;56.522;14.950;2023-01-10T06:42:50;6.90;;;4.30;;
11763;SDS011;5939;56.522;14.950;2023-01-10T06:45:16;6.37;;;4.30;;
11763;SDS011;5939;56.522;14.950;2023-01-10T06:47:42;5.83;;;4.67;;
11763;SDS011;5939;56.522;14.950;2023-01-10T06:50:08;5.90;;;4.50;;
11763;SDS011;5939;56.522;14.950;2023-01-10T06:52:35;6.97;;;4.90;;
11763;SDS011;5939;56.522;14.950;2023-01-10T06:55:02;6.90;;;4.50;;
11763;SDS011;5939;56.522;14.950;2023-01-10T06:57:28;7.63;;;5.00;;
11763;SDS011;5939;56.522;14.950;2023-01-10T06:59:53;6.60;;;4.60;;
11763;SDS011;5939;56.522;14.950;2023-01-10T07:02:19;8.30;;;5.17;;
11763;SDS011;5939;56.522;14.950;2023-01-10T07:04:46;7.33;;;4.53;;
11763;SDS011;5939;56.522;14.950;2023-01-10T07:07:13;5.53;;;4.70;;
11763;SDS011;5939;56.522;14.950;2023-01-10T07:09:38;7.57;;;5.10;;
11763;SDS011;5939;56.522;14.950;2023-01-10T07:12:04;6.67;;;4.57;;
11763;SDS011;5939;56.522;14.950;2023-01-10T07:14:30;7.80;;;5.00;;
11763;SDS011;5939;56.522;14.950;2023-01-10T07:16:56;6.00;;;4.57;;
11763;SDS011;5939;56.522;14.950;2023-01-10T07:19:21;7.73;;;4.73;;
11763;SDS011;5939;56.522;14.950;2023-01-10T07:21:47;7.67;;;4.70;;
11763;SDS011;5939;56.522;14.950;2023-01-10T07:24:13;7.03;;;4.40;;
11763;SDS011;5939;56.522;14.950;2023-01-10T07:26:38;7.23;;;4.70;;
11763;SDS011;5939;56.522;14.950;2023-01-10T07:29:04;5.83;;;4.10;;
11763;SDS011;5939;56.522;14.950;2023-01-10T07:31:30;7.47;;;5.37;;
11763;SDS011;5939;56.522;14.950;2023-01-10T07:33:55;6.67;;;4.70;;
11763;SDS011;5939;56.522;14.950;2023-01-10T07:36:21;5.47;;;4.57;;
11763;SDS011;5939;56.522;14.950;2023-01-10T07:38:47;8.07;;;5.27;;
11763;SDS011;5939;56.522;14.950;2023-01-10T07:41:12;9.77;;;4.70;;
11763;SDS011;5939;56.522;14.950;2023-01-10T07:43:38;5.63;;;4.70;;
11763;SDS011;5939;56.522;14.950;2023-01-10T07:46:04;5.60;;;4.73;;
11763;SDS011;5939;56.522;14.950;2023-01-10T07:48:36;5.63;;;4.17;;
11763;SDS011;5939;56.522;14.950;2023-01-10T07:51:03;6.73;;;4.40;;
11763;SDS011;5939;56.522;14.950;2023-01-10T07:53:29;6.60;;;4.83;;
11763;SDS011;5939;56.522;14.950;2023-01-10T07:56:01;8.00;;;4.40;;
11763;SDS011;5939;56.522;14.950;2023-01-10T07:58:29;6.50;;;4.17;;
11763;SDS011;5939;56.522;14.950;2023-01-10T08:00:58;6.77;;;4.27;;
11763;SDS011;5939;56.522;14.950;2023-01-10T08:03:25;5.93;;;4.00;;
11763;SDS011;5939;56.522;14.950;2023-01-10T08:05:57;5.57;;;4.30;;
11763;SDS011;5939;56.522;14.950;2023-01-10T08:08:24;7.70;;;5.10;;
11763;SDS011;5939;56.522;14.950;2023-01-10T08:10:50;8.23;;;4.57;;
11763;SDS011;5939;56.522;14.950;2023-01-10T08:13:15;5.57;;;4.30;;
11763;SDS011;5939;56.522;14.950;2023-01-10T08:15:41;5.90;;;4.13;;
11763;SDS011;5939;56.522;14.950;2023-01-10T08:18:06;5.60;;;3.77;;
11763;SDS011;5939;56.522;14.950;2023-01-10T08:20:32;7.30;;;4.33;;
11763;SDS011;5939;56.522;14.950;2023-01-10T08:22:58;5.63;;;4.17;;
11763;SDS011;5939;56.522;14.950;2023-01-10T08:25:24;5.87;;;4.10;;
11763;SDS011;5939;56.522;14.950;2023-01-10T08:27:50;6.93;;;4.10;;
11763;SDS011;5939;56.522;14.950;2023-01-10T08:30:16;7.60;;;4.40;;
11763;SDS011;5939;56.522;14.950;2023-01-10T08:32:42;5.33;;;4.40;;
11763;SDS011;5939;56.522;14.950;2023-01-10T08:35:08;5.30;;;3.83;;
11763;SDS011;5939;56.522;14.950;2023-01-10T08:37:35;5.47;;;4.07;;
11763;SDS011;5939;56.522;14.950;2023-01-10T08:40:01;5.30;;;4.17;;
11763;SDS011;5939;56.522;14.950;2023-01-10T08:42:27;5.50;;;4.17;;
11763;SDS011;5939;56.522;14.950;2023-01-10T08:44:52;6.10;;;4.00;;
11763;SDS011;5939;56.522;14.950;2023-01-10T08:47:18;8.00;;;4.60;;
11763;SDS011;5939;56.522;14.950;2023-01-10T08:49:44;5.73;;;4.37;;
11763;SDS011;5939;56.522;14.950;2023-01-10T08:52:11;6.07;;;4.10;;
11763;SDS011;5939;56.522;14.950;2023-01-10T08:54:37;6.30;;;4.10;;
11763;SDS011;5939;56.522;14.950;2023-01-10T08:57:02;4.93;;;3.90;;
11763;SDS011;5939;56.522;14.950;2023-01-10T08:59:28;6.93;;;4.20;;
11763;SDS011;5939;56.522;14.950;2023-01-10T09:01:54;4.60;;;3.70;;
11763;SDS011;5939;56.522;14.950;2023-01-10T09:04:22;5.83;;;3.70;;
11763;SDS011;5939;56.522;14.950;2023-01-10T09:06:48;5.83;;;4.00;;
11763;SDS011;5939;56.522;14.950;2023-01-10T09:09:14;5.47;;;3.80;;
11763;SDS011;5939;56.522;14.950;2023-01-10T09:11:39;5.77;;;3.87;;
11763;SDS011;5939;56.522;14.950;2023-01-10T09:14:05;6.27;;;3.60;;
11763;SDS011;5939;56.522;14.950;2023-01-10T09:16:31;5.00;;;3.70;;
11763;SDS011;5939;56.522;14.950;2023-01-10T09:18:57;5.90;;;4.20;;
11763;SDS011;5939;56.522;14.950;2023-01-10T09:21:25;5.97;;;4.30;;
11763;SDS011;5939;56.522;14.950;2023-01-10T09:23:52;7.07;;;4.27;;
11763;SDS011;5939;56.522;14.950;2023-01-10T09:26:17;5.07;;;3.77;;
11763;SDS011;5939;56.522;14.950;2023-01-10T09:28:43;5.20;;;4.10;;
11763;SDS011;5939;56.522;14.950;2023-01-10T09:31:09;5.97;;;4.10;;
11763;SDS011;5939;56.522;14.950;2023-01-10T09:33:36;6.10;;;3.90;;
11763;SDS011;5939;56.522;14.950;2023-01-10T09:36:02;5.93;;;3.97;;
11763;SDS011;5939;56.522;14.950;2023-01-10T09:38:28;5.90;;;4.30;;
11763;SDS011;5939;56.522;14.950;2023-01-10T09:49:27;5.87;;;3.57;;
11763;SDS011;5939;56.522;14.950;2023-01-10T09:52:24;6.30;;;3.93;;
11763;SDS011;5939;56.522;14.950;2023-01-10T09:54:55;6.00;;;3.83;;
11763;SDS011;5939;56.522;14.950;2023-01-10T09:57:22;5.47;;;3.67;;
11763;SDS011;5939;56.522;14.950;2023-01-10T09:59:49;4.83;;;3.60;;
11763;SDS011;5939;56.522;14.950;2023-01-10T10:04:43;4.90;;;3.47;;
11763;SDS011;5939;56.522;14.950;2023-01-10T10:07:26;5.33;;;4.00;;
11763;SDS011;5939;56.522;14.950;2023-01-10T10:09:52;6.07;;;4.10;;
11763;SDS011;5939;56.522;14.950;2023-01-10T10:14:46;5.63;;;4.00;;
11763;SDS011;5939;56.522;14.950;2023-01-10T10:17:36;4.50;;;3.80;;
11763;SDS011;5939;56.522;14.950;2023-01-10T10:25:53;5.70;;;4.03;;
11763;SDS011;5939;56.522;14.950;2023-01-10T10:31:29;7.47;;;4.63;;
11763;SDS011;5939;56.522;14.950;2023-01-10T10:34:09;5.20;;;4.03;;
11763;SDS011;5939;56.522;14.950;2023-01-10T10:36:49;5.47;;;4.17;;
11763;SDS011;5939;56.522;14.950;2023-01-10T10:39:26;5.43;;;3.67;;
11763;SDS011;5939;56.522;14.950;2023-01-10T10:41:56;4.83;;;3.90;;
11763;SDS011;5939;56.522;14.950;2023-01-10T10:44:57;8.50;;;4.20;;
11763;SDS011;5939;56.522;14.950;2023-01-10T10:47:20;6.80;;;4.27;;
11763;SDS011;5939;56.522;14.950;2023-01-10T10:50:03;5.43;;;3.97;;
11763;SDS011;5939;56.522;14.950;2023-01-10T10:52:37;7.50;;;4.17;;
11763;SDS011;5939;56.522;14.950;2023-01-10T10:55:05;7.23;;;4.13;;
11763;SDS011;5939;56.522;14.950;2023-01-10T10:57:36;5.73;;;3.73;;
11763;SDS011;5939;56.522;14.950;2023-01-10T11:00:03;4.57;;;3.80;;
11763;SDS011;5939;56.522;14.950;2023-01-10T11:02:32;4.33;;;3.93;;
11763;SDS011;5939;56.522;14.950;2023-01-10T11:05:06;5.20;;;4.03;;
11763;SDS011;5939;56.522;14.950;2023-01-10T11:07:40;7.17;;;4.53;;
11763;SDS011;5939;56.522;14.950;2023-01-10T11:13:03;6.43;;;4.03;;
11763;SDS011;5939;56.522;14.950;2023-01-10T11:15:39;4.90;;;4.40;;
11763;SDS011;5939;56.522;14.950;2023-01-10T11:18:14;4.97;;;3.93;;
11763;SDS011;5939;56.522;14.950;2023-01-10T11:21:07;4.57;;;3.93;;
11763;SDS011;5939;56.522;14.950;2023-01-10T11:26:05;6.50;;;4.23;;
11763;SDS011;5939;56.522;14.950;2023-01-10T11:28:52;6.23;;;4.07;;
11763;SDS011;5939;56.522;14.950;2023-01-10T11:31:32;4.97;;;3.43;;
11763;SDS011;5939;56.522;14.950;2023-01-10T11:34:05;4.97;;;3.63;;
11763;SDS011;5939;56.522;14.950;2023-01-10T11:36:53;7.37;;;4.20;;
11763;SDS011;5939;56.522;14.950;2023-01-10T11:39:19;5.73;;;4.33;;
11763;SDS011;5939;56.522;14.950;2023-01-10T11:41:46;5.57;;;4.00;;
11763;SDS011;5939;56.522;14.950;2023-01-10T11:44:17;5.30;;;3.97;;
11763;SDS011;5939;56.522;14.950;2023-01-10T11:46:47;6.13;;;3.77;;
11763;SDS011;5939;56.522;14.950;2023-01-10T11:49:14;5.20;;;3.90;;
11763;SDS011;5939;56.522;14.950;2023-01-10T11:51:48;6.13;;;4.00;;
11763;SDS011;5939;56.522;14.950;2023-01-10T11:54:16;5.40;;;3.57;;
11763;SDS011;5939;56.522;14.950;2023-01-10T11:59:32;4.40;;;3.60;;
11763;SDS011;5939;56.522;14.950;2023-01-10T12:04:30;5.53;;;3.87;;
11763;SDS011;5939;56.522;14.950;2023-01-10T12:07:02;5.43;;;3.77;;
11763;SDS011;5939;56.522;14.950;2023-01-10T12:09:37;5.17;;;3.67;;
11763;SDS011;5939;56.522;14.950;2023-01-10T12:12:34;6.23;;;3.93;;
11763;SDS011;5939;56.522;14.950;2023-01-10T12:18:06;5.00;;;3.63;;
11763;SDS011;5939;56.522;14.950;2023-01-10T12:20:43;4.43;;;3.50;;
11763;SDS011;5939;56.522;14.950;2023-01-10T12:23:15;5.07;;;3.63;;
11763;SDS011;5939;56.522;14.950;2023-01-10T12:25:44;4.90;;;3.60;;
11763;SDS011;5939;56.522;14.950;2023-01-10T12:28:19;5.47;;;3.93;;
11763;SDS011;5939;56.522;14.950;2023-01-10T12:30:47;5.37;;;3.80;;
11763;SDS011;5939;56.522;14.950;2023-01-10T12:33:38;5.00;;;3.97;;
11763;SDS011;5939;56.522;14.950;2023-01-10T12:44:29;4.30;;;3.13;;
11763;SDS011;5939;56.522;14.950;2023-01-10T12:55:00;5.77;;;4.20;;
11763;SDS011;5939;56.522;14.950;2023-01-10T12:57:29;5.60;;;3.80;;
11763;SDS011;5939;56.522;14.950;2023-01-10T13:00:06;4.17;;;3.70;;
11763;SDS011;5939;56.522;14.950;2023-01-10T13:02:53;6.13;;;3.23;;
11763;SDS011;5939;56.522;14.950;2023-01-10T13:05:22;5.03;;;3.40;;
11763;SDS011;5939;56.522;14.950;2023-01-10T13:07:50;4.40;;;3.37;;
11763;SDS011;5939;56.522;14.950;2023-01-10T13:10:22;3.90;;;3.30;;
11763;SDS011;5939;56.522;14.950;2023-01-10T13:12:54;4.70;;;3.70;;
11763;SDS011;5939;56.522;14.950;2023-01-10T13:15:31;5.80;;;3.27;;
11763;SDS011;5939;56.522;14.950;2023-01-10T13:18:13;3.43;;;3.10;;
11763;SDS011;5939;56.522;14.950;2023-01-10T13:20:40;3.37;;;3.07;;
11763;SDS011;5939;56.522;14.950;2023-01-10T13:23:21;4.73;;;3.30;;
11763;SDS011;5939;56.522;14.950;2023-01-10T13:25:54;3.80;;;3.00;;
11763;SDS011;5939;56.522;14.950;2023-01-10T13:28:23;5.17;;;3.30;;
11763;SDS011;5939;56.522;14.950;2023-01-10T13:31:04;5.10;;;3.00;;
11763;SDS011;5939;56.522;14.950;2023-01-10T13:34:17;4.03;;;2.93;;
11763;SDS011;5939;56.522;14.950;2023-01-10T13:36:29;4.80;;;3.20;;
11763;SDS011;5939;56.522;14.950;2023-01-10T13:39:04;4.67;;;3.47;;
11763;SDS011;5939;56.522;14.950;2023-01-10T14:08:55;3.67;;;2.60;;
11763;SDS011;5939;56.522;14.950;2023-01-10T14:11:24;4.07;;;3.03;;
11763;SDS011;5939;56.522;14.950;2023-01-10T14:13:56;3.70;;;2.90;;
11763;SDS011;5939;56.522;14.950;2023-01-10T14:16:34;4.10;;;2.90;;
11763;SDS011;5939;56.522;14.950;2023-01-10T14:19:06;3.03;;;2.67;;
11763;SDS011;5939;56.522;14.950;2023-01-10T14:21:46;3.80;;;3.07;;
11763;SDS011;5939;56.522;14.950;2023-01-10T14:27:17;3.00;;;2.60;;
11763;SDS011;5939;56.522;14.950;2023-01-10T14:29:47;3.20;;;2.53;;
11763;SDS011;5939;56.522;14.950;2023-01-10T14:32:29;3.50;;;2.90;;
11763;SDS011;5939;56.522;14.950;2023-01-10T14:35:03;3.57;;;2.67;;
11763;SDS011;5939;56.522;14.950;2023-01-10T14:37:37;2.73;;;2.50;;
11763;SDS011;5939;56.522;14.950;2023-01-10T14:40:13;4.43;;;2.60;;
11763;SDS011;5939;56.522;14.950;2023-01-10T14:42:52;5.37;;;2.70;;
11763;SDS011;5939;56.522;14.950;2023-01-10T14:45:32;3.37;;;2.70;;
11763;SDS011;5939;56.522;14.950;2023-01-10T14:47:58;4.43;;;3.03;;
11763;SDS011;5939;56.522;14.950;2023-01-10T14:50:25;2.70;;;2.50;;
11763;SDS011;5939;56.522;14.950;2023-01-10T14:52:53;2.93;;;2.40;;
11763;SDS011;5939;56.522;14.950;2023-01-10T14:55:25;2.77;;;2.40;;
11763;SDS011;5939;56.522;14.950;2023-01-10T14:57:56;3.00;;;2.73;;
11763;SDS011;5939;56.522;14.950;2023-01-10T15:02:59;3.20;;;2.40;;
11763;SDS011;5939;56.522;14.950;2023-01-10T15:05:28;3.50;;;2.70;;
11763;SDS011;5939;56.522;14.950;2023-01-10T15:08:15;3.10;;;2.33;;
11763;SDS011;5939;56.522;14.950;2023-01-10T15:10:44;3.40;;;2.33;;
11763;SDS011;5939;56.522;14.950;2023-01-10T15:13:16;2.63;;;2.43;;
11763;SDS011;5939;56.522;14.950;2023-01-10T15:15:44;2.50;;;2.30;;
11763;SDS011;5939;56.522;14.950;2023-01-10T15:21:00;2.77;;;2.47;;
11763;SDS011;5939;56.522;14.950;2023-01-10T15:23:38;2.90;;;2.20;;
11763;SDS011;5939;56.522;14.950;2023-01-10T15:26:09;3.53;;;2.40;;
11763;SDS011;5939;56.522;14.950;2023-01-10T15:28:42;2.33;;;2.13;;
11763;SDS011;5939;56.522;14.950;2023-01-10T15:31:13;3.37;;;2.43;;
11763;SDS011;5939;56.522;14.950;2023-01-10T15:33:42;2.93;;;2.43;;
11763;SDS011;5939;56.522;14.950;2023-01-10T15:36:20;3.07;;;2.43;;
11763;SDS011;5939;56.522;14.950;2023-01-10T15:38:49;4.43;;;2.50;;
11763;SDS011;5939;56.522;14.950;2023-01-10T15:41:16;3.00;;;2.60;;
11763;SDS011;5939;56.522;14.950;2023-01-10T15:43:44;3.73;;;2.40;;
11763;SDS011;5939;56.522;14.950;2023-01-10T15:46:18;2.30;;;2.07;;
11763;SDS011;5939;56.522;14.950;2023-01-10T15:48:58;2.33;;;2.03;;
11763;SDS011;5939;56.522;14.950;2023-01-10T15:54:25;2.37;;;2.17;;
11763;SDS011;5939;56.522;14.950;2023-01-10T15:56:56;3.10;;;2.20;;
11763;SDS011;5939;56.522;14.950;2023-01-10T15:59:35;3.30;;;2.30;;
11763;SDS011;5939;56.522;14.950;2023-01-10T16:04:35;2.37;;;2.10;;
11763;SDS011;5939;56.522;14.950;2023-01-10T16:07:14;2.67;;;2.33;;
11763;SDS011;5939;56.522;14.950;2023-01-10T16:09:52;3.50;;;2.70;;
11763;SDS011;5939;56.522;14.950;2023-01-10T16:12:34;2.53;;;2.10;;
11763;SDS011;5939;56.522;14.950;2023-01-10T16:15:30;2.97;;;2.00;;
11763;SDS011;5939;56.522;14.950;2023-01-10T16:17:59;3.27;;;2.27;;
11763;SDS011;5939;56.522;14.950;2023-01-10T16:20:26;2.47;;;2.10;;
11763;SDS011;5939;56.522;14.950;2023-01-10T16:22:54;2.23;;;2.00;;
11763;SDS011;5939;56.522;14.950;2023-01-10T16:25:39;2.27;;;2.07;;
11763;SDS011;5939;56.522;14.950;2023-01-10T16:28:12;2.47;;;2.27;;
11763;SDS011;5939;56.522;14.950;2023-01-10T16:30:40;2.53;;;1.77;;
11763;SDS011;5939;56.522;14.950;2023-01-10T16:33:20;2.33;;;2.13;;
11763;SDS011;5939;56.522;14.950;2023-01-10T16:35:49;3.00;;;1.70;;
11763;SDS011;5939;56.522;14.950;2023-01-10T16:38:16;2.83;;;2.20;;
11763;SDS011;5939;56.522;14.950;2023-01-10T16:40:45;2.97;;;2.10;;
11763;SDS011;5939;56.522;14.950;2023-01-10T16:43:17;2.20;;;2.00;;
11763;SDS011;5939;56.522;14.950;2023-01-10T16:45:55;3.27;;;2.00;;
11763;SDS011;5939;56.522;14.950;2023-01-10T16:48:24;2.67;;;2.07;;
11763;SDS011;5939;56.522;14.950;2023-01-10T16:50:51;2.20;;;2.00;;
11763;SDS011;5939;56.522;14.950;2023-01-10T16:53:17;2.20;;;1.90;;
11763;SDS011;5939;56.522;14.950;2023-01-10T16:55:50;3.43;;;2.03;;
11763;SDS011;5939;56.522;14.950;2023-01-10T16:58:17;3.27;;;2.30;;
11763;SDS011;5939;56.522;14.950;2023-01-10T17:00:45;2.63;;;1.97;;
11763;SDS011;5939;56.522;14.950;2023-01-10T17:03:20;4.70;;;2.07;;
11763;SDS011;5939;56.522;14.950;2023-01-10T17:05:48;2.47;;;1.97;;
11763;SDS011;5939;56.522;14.950;2023-01-10T17:08:16;2.77;;;2.20;;
11763;SDS011;5939;56.522;14.950;2023-01-10T17:10:44;3.70;;;1.90;;